createdAt,value
2019-02-09T00:01:00.326Z,18.36
2019-02-09T00:02:00.568Z,18.36
2019-02-09T00:03:01.018Z,18.34
2019-02-09T00:03:59.954Z,18.34
2019-02-09T00:04:59.715Z,18.34
2019-02-09T00:05:58.976Z,18.33
2019-02-09T00:06:59.130Z,18.32
2019-02-09T00:07:59.075Z,18.32
2019-02-09T00:08:59.693Z,18.32
2019-02-09T00:09:59.849Z,18.32
2019-02-09T00:10:59.856Z,18.32
2019-02-09T00:11:59.654Z,18.31
2019-02-09T00:12:59.388Z,18.3
2019-02-09T00:13:59.138Z,18.3
2019-02-09T00:14:58.967Z,18.3
2019-02-09T00:15:59.078Z,18.29
2019-02-09T00:16:58.927Z,18.29
2019-02-09T00:17:59.025Z,18.27
2019-02-09T00:18:59.708Z,18.27
2019-02-09T00:19:59.869Z,18.27
2019-02-09T00:20:59.065Z,18.26
2019-02-09T00:21:59.233Z,18.27
2019-02-09T00:22:59.339Z,18.25
2019-02-09T00:24:00.465Z,18.24
2019-02-09T00:24:59.487Z,18.25
2019-02-09T00:25:59.139Z,18.25
2019-02-09T00:26:59.182Z,18.23
2019-02-09T00:27:59.373Z,18.23
2019-02-09T00:28:59.113Z,18.23
2019-02-09T00:29:59.131Z,18.21
2019-02-09T00:30:59.042Z,18.21
2019-02-09T00:31:59.114Z,18.22
2019-02-09T00:32:59.465Z,18.19
2019-02-09T00:33:59.412Z,18.2
2019-02-09T00:34:59.012Z,18.2
2019-02-09T00:35:59.278Z,18.18
2019-02-09T00:36:59.689Z,18.19
2019-02-09T00:37:59.970Z,18.18
2019-02-09T00:38:59.270Z,18.18
2019-02-09T00:40:01.000Z,18.16
2019-02-09T00:40:59.339Z,18.16
2019-02-09T00:41:59.670Z,18.16
2019-02-09T00:43:03.651Z,18.16
2019-02-09T00:43:59.265Z,18.16
2019-02-09T00:44:59.122Z,18.17
2019-02-09T00:45:59.594Z,18.16
2019-02-09T00:46:59.498Z,18.15
2019-02-09T00:47:59.031Z,18.14
2019-02-09T00:48:59.303Z,18.16
2019-02-09T00:49:59.538Z,18.14
2019-02-09T00:50:59.875Z,18.14
2019-02-09T00:52:00.977Z,18.12
2019-02-09T00:52:59.538Z,18.11
2019-02-09T00:53:58.874Z,18.12
2019-02-09T00:55:00.882Z,18.11
2019-02-09T00:55:59.979Z,18.12
2019-02-09T00:57:00.004Z,18.12
2019-02-09T00:57:59.109Z,18.1
2019-02-09T00:58:59.495Z,18.09
2019-02-09T00:59:59.015Z,18.09
2019-02-09T01:00:59.170Z,18.08
2019-02-09T01:01:59.917Z,18.09
2019-02-09T01:02:59.266Z,18.08
2019-02-09T01:04:00.542Z,18.07
2019-02-09T01:04:59.169Z,18.08
2019-02-09T01:05:59.225Z,18.08
2019-02-09T01:06:59.103Z,18.07
2019-02-09T01:07:59.046Z,18.06
2019-02-09T01:08:59.395Z,18.06
2019-02-09T01:09:59.556Z,18.05
2019-02-09T01:10:59.234Z,18.05
2019-02-09T01:12:00.046Z,18.04
2019-02-09T01:12:59.300Z,18.04
2019-02-09T01:14:00.965Z,18.04
2019-02-09T01:14:59.341Z,18.03
2019-02-09T01:15:59.209Z,18.03
2019-02-09T01:16:59.609Z,18.02
2019-02-09T01:17:59.422Z,18.02
2019-02-09T01:18:59.515Z,18.02
2019-02-09T01:19:59.830Z,18.02
2019-02-09T01:20:59.693Z,18.01
2019-02-09T01:21:59.448Z,18.01
2019-02-09T01:22:59.134Z,18.02
2019-02-09T01:23:59.883Z,18
2019-02-09T01:24:59.655Z,18
2019-02-09T01:25:59.875Z,17.99
2019-02-09T01:26:58.934Z,18
2019-02-09T01:27:59.658Z,17.98
2019-02-09T01:28:59.687Z,17.98
2019-02-09T01:30:02.329Z,17.98
2019-02-09T01:30:59.393Z,17.98
2019-02-09T01:31:59.107Z,17.99
2019-02-09T01:32:59.225Z,17.98
2019-02-09T01:33:59.147Z,17.97
2019-02-09T01:34:59.255Z,17.96
2019-02-09T01:35:58.988Z,17.96
2019-02-09T01:36:59.344Z,17.94
2019-02-09T01:37:59.345Z,17.95
2019-02-09T01:38:59.062Z,17.94
2019-02-09T01:39:59.478Z,17.94
2019-02-09T01:41:01.087Z,17.95
2019-02-09T01:41:59.063Z,17.94
2019-02-09T01:42:59.155Z,17.93
2019-02-09T01:43:59.025Z,17.93
2019-02-09T01:44:59.593Z,17.92
2019-02-09T01:45:59.624Z,17.93
2019-02-09T01:46:59.059Z,17.93
2019-02-09T01:47:59.109Z,17.92
2019-02-09T01:48:59.836Z,17.92
2019-02-09T01:49:58.931Z,17.93
2019-02-09T01:50:59.160Z,17.91
2019-02-09T01:51:59.441Z,17.92
2019-02-09T01:53:00.888Z,17.92
2019-02-09T01:53:59.243Z,17.9
2019-02-09T01:54:58.891Z,17.91
2019-02-09T01:56:00.616Z,17.9
2019-02-09T01:56:59.788Z,17.9
2019-02-09T01:58:04.788Z,17.9
2019-02-09T01:58:58.985Z,17.89
2019-02-09T01:59:58.823Z,17.89
2019-02-09T02:00:59.337Z,17.88
2019-02-09T02:01:59.118Z,17.88
2019-02-09T02:02:59.553Z,17.87
2019-02-09T02:03:59.056Z,17.87
2019-02-09T02:04:59.546Z,17.87
2019-02-09T02:05:59.023Z,17.87
2019-02-09T02:06:59.103Z,17.86
2019-02-09T02:07:59.659Z,17.85
2019-02-09T02:08:58.959Z,17.84
2019-02-09T02:09:59.129Z,17.84
2019-02-09T02:10:59.279Z,17.84
2019-02-09T02:11:59.250Z,17.84
2019-02-09T02:13:00.099Z,17.84
2019-02-09T02:13:59.846Z,17.83
2019-02-09T02:14:59.102Z,17.84
2019-02-09T02:15:59.616Z,17.84
2019-02-09T02:16:59.101Z,17.83
2019-02-09T02:17:59.163Z,17.81
2019-02-09T02:18:59.187Z,17.81
2019-02-09T02:19:59.343Z,17.8
2019-02-09T02:20:59.140Z,17.81
2019-02-09T02:21:58.959Z,17.8
2019-02-09T02:22:59.167Z,17.79
2019-02-09T02:23:59.145Z,17.79
2019-02-09T02:24:59.288Z,17.79
2019-02-09T02:25:59.284Z,17.78
2019-02-09T02:26:59.158Z,17.78
2019-02-09T02:28:00.826Z,17.78
2019-02-09T02:28:59.210Z,17.78
2019-02-09T02:29:59.167Z,17.78
2019-02-09T02:30:59.011Z,17.78
2019-02-09T02:31:59.014Z,17.77
2019-02-09T02:32:59.193Z,17.78
2019-02-09T02:33:59.648Z,17.78
2019-02-09T02:34:59.096Z,17.76
2019-02-09T02:35:58.891Z,17.76
2019-02-09T02:37:00.847Z,17.76
2019-02-09T02:37:59.576Z,17.75
2019-02-09T02:38:59.583Z,17.75
2019-02-09T02:39:58.932Z,17.74
2019-02-09T02:40:59.299Z,17.75
2019-02-09T02:41:59.528Z,17.74
2019-02-09T02:42:59.084Z,17.74
2019-02-09T02:43:59.017Z,17.74
2019-02-09T02:44:59.850Z,17.73
2019-02-09T02:45:59.037Z,17.74
2019-02-09T02:47:00.792Z,17.74
2019-02-09T02:47:59.072Z,17.74
2019-02-09T02:48:58.933Z,17.73
2019-02-09T02:49:59.273Z,17.72
2019-02-09T02:50:59.364Z,17.72
2019-02-09T02:51:59.016Z,17.72
2019-02-09T02:52:59.270Z,17.72
2019-02-09T02:53:59.486Z,17.71
2019-02-09T02:54:59.619Z,17.71
2019-02-09T02:55:58.957Z,17.71
2019-02-09T02:56:59.915Z,17.7
2019-02-09T02:57:59.224Z,17.69
2019-02-09T02:59:00.008Z,17.7
2019-02-09T02:59:59.329Z,17.71
2019-02-09T03:00:59.978Z,17.7
2019-02-09T03:01:59.343Z,17.72
2019-02-09T03:02:59.036Z,17.7
2019-02-09T03:03:59.044Z,17.69
2019-02-09T03:04:59.238Z,17.68
2019-02-09T03:05:59.074Z,17.69
2019-02-09T03:06:59.003Z,17.69
2019-02-09T03:07:59.615Z,17.68
2019-02-09T03:08:59.229Z,17.68
2019-02-09T03:09:59.595Z,17.66
2019-02-09T03:10:59.245Z,17.68
2019-02-09T03:11:59.067Z,17.67
2019-02-09T03:12:59.336Z,17.66
2019-02-09T03:13:59.743Z,17.66
2019-02-09T03:14:59.089Z,17.66
2019-02-09T03:15:59.682Z,17.66
2019-02-09T03:16:59.070Z,17.65
2019-02-09T03:17:59.775Z,17.65
2019-02-09T03:18:59.062Z,17.65
2019-02-09T03:19:59.259Z,17.64
2019-02-09T03:20:59.847Z,17.64
2019-02-09T03:21:59.380Z,17.63
2019-02-09T03:22:59.494Z,17.63
2019-02-09T03:24:00.854Z,17.63
2019-02-09T03:24:59.205Z,17.64
2019-02-09T03:25:58.957Z,17.62
2019-02-09T03:26:59.838Z,17.62
2019-02-09T03:28:00.542Z,17.62
2019-02-09T03:28:59.747Z,17.62
2019-02-09T03:29:59.124Z,17.62
2019-02-09T03:30:59.132Z,17.62
2019-02-09T03:31:59.700Z,17.61
2019-02-09T03:32:59.390Z,17.61
2019-02-09T03:33:59.451Z,17.6
2019-02-09T03:35:00.487Z,17.61
2019-02-09T03:36:00.944Z,17.6
2019-02-09T03:36:58.847Z,17.59
2019-02-09T03:37:58.983Z,17.6
2019-02-09T03:38:59.411Z,17.59
2019-02-09T03:39:59.312Z,17.59
2019-02-09T03:40:59.311Z,17.59
2019-02-09T03:41:59.731Z,17.6
2019-02-09T03:42:58.914Z,17.59
2019-02-09T03:43:59.323Z,17.58
2019-02-09T03:44:59.251Z,17.59
2019-02-09T03:45:59.340Z,17.58
2019-02-09T03:46:59.567Z,17.58
2019-02-09T03:47:59.262Z,17.59
2019-02-09T03:48:59.052Z,17.58
2019-02-09T03:49:59.879Z,17.58
2019-02-09T03:50:59.111Z,17.57
2019-02-09T03:51:59.171Z,17.58
2019-02-09T03:52:59.118Z,17.57
2019-02-09T03:53:59.198Z,17.57
2019-02-09T03:54:59.148Z,17.56
2019-02-09T03:55:58.953Z,17.56
2019-02-09T03:56:59.234Z,17.55
2019-02-09T03:57:59.242Z,17.55
2019-02-09T03:58:59.366Z,17.55
2019-02-09T03:59:59.123Z,17.55
2019-02-09T04:00:58.951Z,17.54
2019-02-09T04:01:59.168Z,17.54
2019-02-09T04:02:59.261Z,17.54
2019-02-09T04:03:59.370Z,17.55
2019-02-09T04:04:59.204Z,17.54
2019-02-09T04:05:59.316Z,17.54
2019-02-09T04:06:59.295Z,17.53
2019-02-09T04:07:59.087Z,17.53
2019-02-09T04:08:59.214Z,17.53
2019-02-09T04:09:59.219Z,17.53
2019-02-09T04:10:59.057Z,17.52
2019-02-09T04:11:59.601Z,17.53
2019-02-09T04:12:59.169Z,17.51
2019-02-09T04:14:00.874Z,17.51
2019-02-09T04:14:59.093Z,17.52
2019-02-09T04:15:58.927Z,17.5
2019-02-09T04:17:00.912Z,17.5
2019-02-09T04:17:59.389Z,17.5
2019-02-09T04:18:59.219Z,17.5
2019-02-09T04:19:59.248Z,17.51
2019-02-09T04:20:59.498Z,17.49
2019-02-09T04:21:58.997Z,17.49
2019-02-09T04:23:00.885Z,17.49
2019-02-09T04:23:59.846Z,17.49
2019-02-09T04:24:58.858Z,17.48
2019-02-09T04:25:59.648Z,17.49
2019-02-09T04:26:59.240Z,17.49
2019-02-09T04:27:59.234Z,17.48
2019-02-09T04:28:59.021Z,17.48
2019-02-09T04:29:59.614Z,17.48
2019-02-09T04:31:05.692Z,17.47
2019-02-09T04:31:59.461Z,17.47
2019-02-09T04:33:00.306Z,17.48
2019-02-09T04:33:59.065Z,17.47
2019-02-09T04:34:59.218Z,17.47
2019-02-09T04:35:59.184Z,17.47
2019-02-09T04:36:59.016Z,17.46
2019-02-09T04:37:59.258Z,17.46
2019-02-09T04:38:58.953Z,17.47
2019-02-09T04:39:59.019Z,17.48
2019-02-09T04:40:58.863Z,17.47
2019-02-09T04:41:59.744Z,17.47
2019-02-09T04:42:59.069Z,17.47
2019-02-09T04:43:59.191Z,17.47
2019-02-09T04:44:59.454Z,17.46
2019-02-09T04:45:59.367Z,17.46
2019-02-09T04:46:58.949Z,17.47
2019-02-09T04:47:59.039Z,17.47
2019-02-09T04:48:59.296Z,17.48
2019-02-09T04:49:59.497Z,17.49
2019-02-09T04:50:58.892Z,17.48
2019-02-09T04:51:59.992Z,17.49
2019-02-09T04:52:59.939Z,17.5
2019-02-09T04:53:59.321Z,17.5
2019-02-09T04:54:58.887Z,17.51
2019-02-09T04:55:59.432Z,17.51
2019-02-09T04:56:59.359Z,17.53
2019-02-09T04:57:59.564Z,17.53
2019-02-09T04:58:59.282Z,17.54
2019-02-09T04:59:59.380Z,17.55
2019-02-09T05:00:58.990Z,17.55
2019-02-09T05:01:59.074Z,17.56
2019-02-09T05:02:59.222Z,17.57
2019-02-09T05:03:59.514Z,17.58
2019-02-09T05:04:59.210Z,17.59
2019-02-09T05:05:59.111Z,17.6
2019-02-09T05:07:00.776Z,17.61
2019-02-09T05:07:59.672Z,17.63
2019-02-09T05:08:59.349Z,17.64
2019-02-09T05:09:59.235Z,17.64
2019-02-09T05:10:59.306Z,17.66
2019-02-09T05:11:59.245Z,17.67
2019-02-09T05:12:58.922Z,17.69
2019-02-09T05:13:59.088Z,17.7
2019-02-09T05:14:59.168Z,17.71
2019-02-09T05:15:59.041Z,17.73
2019-02-09T05:16:59.893Z,17.75
2019-02-09T05:17:59.394Z,17.77
2019-02-09T05:18:59.487Z,17.78
2019-02-09T05:19:58.891Z,17.8
2019-02-09T05:20:59.322Z,17.81
2019-02-09T05:21:58.887Z,17.83
2019-02-09T05:22:59.208Z,17.85
2019-02-09T05:23:58.977Z,17.87
2019-02-09T05:25:00.936Z,17.88
2019-02-09T05:25:58.940Z,17.89
2019-02-09T05:26:59.968Z,17.92
2019-02-09T05:27:58.887Z,17.92
2019-02-09T05:28:59.182Z,17.94
2019-02-09T05:29:59.512Z,17.95
2019-02-09T05:30:59.246Z,17.97
2019-02-09T05:31:59.830Z,17.99
2019-02-09T05:33:00.588Z,17.99
2019-02-09T05:33:58.921Z,18
2019-02-09T05:34:59.202Z,18.03
2019-02-09T05:35:59.216Z,18.04
2019-02-09T05:36:59.074Z,18.05
2019-02-09T05:37:59.047Z,18.06
2019-02-09T05:38:59.132Z,18.07
2019-02-09T05:39:59.235Z,18.08
2019-02-09T05:40:58.849Z,18.1
2019-02-09T05:41:58.894Z,18.11
2019-02-09T05:42:59.061Z,18.13
2019-02-09T05:43:58.952Z,18.14
2019-02-09T05:44:59.043Z,18.15
2019-02-09T05:45:59.393Z,18.17
2019-02-09T05:46:58.981Z,18.19
2019-02-09T05:47:59.062Z,18.19
2019-02-09T05:48:59.418Z,18.21
2019-02-09T05:49:59.016Z,18.22
2019-02-09T05:51:00.777Z,18.23
2019-02-09T05:51:58.975Z,18.24
2019-02-09T05:52:59.765Z,18.25
2019-02-09T05:53:59.284Z,18.26
2019-02-09T05:54:59.063Z,18.26
2019-02-09T05:55:58.944Z,18.27
2019-02-09T05:56:58.930Z,18.29
2019-02-09T05:57:59.879Z,18.29
2019-02-09T05:58:59.789Z,18.31
2019-02-09T05:59:58.984Z,18.32
2019-02-09T06:00:59.391Z,18.34
2019-02-09T06:01:59.495Z,18.34
2019-02-09T06:03:00.331Z,18.34
2019-02-09T06:03:59.125Z,18.36
2019-02-09T06:04:59.519Z,18.37
2019-02-09T06:05:59.371Z,18.38
2019-02-09T06:06:59.718Z,18.39
2019-02-09T06:08:00.071Z,18.39
2019-02-09T06:08:59.195Z,18.4
2019-02-09T06:09:59.449Z,18.41
2019-02-09T06:10:59.684Z,18.42
2019-02-09T06:11:59.206Z,18.43
2019-02-09T06:12:59.005Z,18.44
2019-02-09T06:13:59.059Z,18.45
2019-02-09T06:14:59.215Z,18.46
2019-02-09T06:15:58.976Z,18.47
2019-02-09T06:16:59.009Z,18.48
2019-02-09T06:17:58.858Z,18.49
2019-02-09T06:18:59.031Z,18.5
2019-02-09T06:20:00.315Z,18.51
2019-02-09T06:20:59.059Z,18.52
2019-02-09T06:21:59.633Z,18.53
2019-02-09T06:22:58.879Z,18.54
2019-02-09T06:23:59.294Z,18.54
2019-02-09T06:24:59.685Z,18.55
2019-02-09T06:25:58.793Z,18.56
2019-02-09T06:26:59.884Z,18.57
2019-02-09T06:27:59.180Z,18.58
2019-02-09T06:28:58.782Z,18.58
2019-02-09T06:29:58.901Z,18.59
2019-02-09T06:30:59.394Z,18.59
2019-02-09T06:31:59.200Z,18.6
2019-02-09T06:32:59.322Z,18.62
2019-02-09T06:33:58.948Z,18.63
2019-02-09T06:34:58.764Z,18.63
2019-02-09T06:35:58.974Z,18.64
2019-02-09T06:36:59.351Z,18.65
2019-02-09T06:37:59.745Z,18.66
2019-02-09T06:38:59.331Z,18.66
2019-02-09T06:39:58.872Z,18.67
2019-02-09T06:40:58.843Z,18.68
2019-02-09T06:41:59.503Z,18.69
2019-02-09T06:42:58.937Z,18.69
2019-02-09T06:43:59.159Z,18.7
2019-02-09T06:44:59.614Z,18.71
2019-02-09T06:45:59.194Z,18.72
2019-02-09T06:46:59.527Z,18.72
2019-02-09T06:47:59.022Z,18.72
2019-02-09T06:48:59.329Z,18.73
2019-02-09T06:49:58.865Z,18.74
2019-02-09T06:50:59.454Z,18.74
2019-02-09T06:51:59.230Z,18.75
2019-02-09T06:52:59.027Z,18.75
2019-02-09T06:53:59.282Z,18.77
2019-02-09T06:54:59.419Z,18.77
2019-02-09T06:56:00.865Z,18.78
2019-02-09T06:56:58.763Z,18.79
2019-02-09T06:57:58.969Z,18.8
2019-02-09T06:58:59.916Z,18.8
2019-02-09T06:59:59.235Z,18.8
2019-02-09T07:00:59.018Z,18.82
2019-02-09T07:01:59.007Z,18.85
2019-02-09T07:02:59.016Z,18.85
2019-02-09T07:03:59.866Z,18.85
2019-02-09T07:04:59.066Z,18.86
2019-02-09T07:05:58.962Z,18.88
2019-02-09T07:06:59.044Z,18.88
2019-02-09T07:07:58.808Z,18.91
2019-02-09T07:08:58.967Z,18.9
2019-02-09T07:09:59.109Z,18.92
2019-02-09T07:10:59.107Z,18.92
2019-02-09T07:11:59.230Z,18.94
2019-02-09T07:12:58.869Z,18.94
2019-02-09T07:13:59.104Z,18.94
2019-02-09T07:14:58.988Z,18.96
2019-02-09T07:15:59.105Z,18.96
2019-02-09T07:16:59.021Z,18.97
2019-02-09T07:17:59.013Z,18.98
2019-02-09T07:18:59.151Z,18.99
2019-02-09T07:19:59.260Z,18.99
2019-02-09T07:20:58.734Z,19
2019-02-09T07:21:59.610Z,19.01
2019-02-09T07:22:59.172Z,19.02
2019-02-09T07:23:58.982Z,19.02
2019-02-09T07:24:59.542Z,19.04
2019-02-09T07:25:59.108Z,19.04
2019-02-09T07:26:58.923Z,19.04
2019-02-09T07:27:59.016Z,19.05
2019-02-09T07:28:58.877Z,19.06
2019-02-09T07:29:58.927Z,19.08
2019-02-09T07:30:59.315Z,19.08
2019-02-09T07:31:59.076Z,19.08
2019-02-09T07:32:58.899Z,19.1
2019-02-09T07:33:59.163Z,19.12
2019-02-09T07:34:59.351Z,19.12
2019-02-09T07:35:59.103Z,19.13
2019-02-09T07:36:59.200Z,19.13
2019-02-09T07:37:58.677Z,19.15
2019-02-09T07:38:58.960Z,19.14
2019-02-09T07:39:58.842Z,19.16
2019-02-09T07:40:58.872Z,19.16
2019-02-09T07:41:59.607Z,19.16
2019-02-09T07:43:00.259Z,19.17
2019-02-09T07:43:58.999Z,19.19
2019-02-09T07:44:59.218Z,19.18
2019-02-09T07:45:59.038Z,19.18
2019-02-09T07:46:59.139Z,19.19
2019-02-09T07:47:59.376Z,19.2
2019-02-09T07:48:58.860Z,19.2
2019-02-09T07:49:59.481Z,19.22
2019-02-09T07:50:58.872Z,19.19
2019-02-09T07:51:59.356Z,19.19
2019-02-09T07:52:59.196Z,19.2
2019-02-09T07:53:59.262Z,19.2
2019-02-09T07:54:59.521Z,19.19
2019-02-09T07:55:59.929Z,19.2
2019-02-09T07:56:59.044Z,19.2
2019-02-09T07:57:58.881Z,19.19
2019-02-09T07:58:59.022Z,19.18
2019-02-09T07:59:59.107Z,19.2
2019-02-09T08:00:59.019Z,19.19
2019-02-09T08:02:04.503Z,19.19
2019-02-09T08:02:58.916Z,19.18
2019-02-09T08:03:58.925Z,19.18
2019-02-09T08:04:58.852Z,19.18
2019-02-09T08:05:58.802Z,19.18
2019-02-09T08:06:59.469Z,19.19
2019-02-09T08:08:00.829Z,19.18
2019-02-09T08:08:59.344Z,19.19
2019-02-09T08:09:59.603Z,19.19
2019-02-09T08:10:59.175Z,19.18
2019-02-09T08:11:59.157Z,19.19
2019-02-09T08:12:59.702Z,19.19
2019-02-09T08:13:58.945Z,19.2
2019-02-09T08:14:58.924Z,19.2
2019-02-09T08:15:59.324Z,19.2
2019-02-09T08:16:59.006Z,19.19
2019-02-09T08:17:59.549Z,19.19
2019-02-09T08:18:59.340Z,19.2
2019-02-09T08:19:59.004Z,19.21
2019-02-09T08:20:59.545Z,19.2
2019-02-09T08:21:58.766Z,19.2
2019-02-09T08:22:59.164Z,19.2
2019-02-09T08:23:59.283Z,19.21
2019-02-09T08:24:59.181Z,19.21
2019-02-09T08:25:59.046Z,19.21
2019-02-09T08:26:59.729Z,19.21
2019-02-09T08:27:59.335Z,19.21
2019-02-09T08:28:59.649Z,19.2
2019-02-09T08:29:59.045Z,19.21
2019-02-09T08:30:59.980Z,19.22
2019-02-09T08:31:59.456Z,19.22
2019-02-09T08:32:58.854Z,19.22
2019-02-09T08:33:59.804Z,19.22
2019-02-09T08:34:59.873Z,19.23
2019-02-09T08:35:58.831Z,19.23
2019-02-09T08:36:59.269Z,19.22
2019-02-09T08:37:59.382Z,19.23
2019-02-09T08:38:59.091Z,19.23
2019-02-09T08:39:58.980Z,19.24
2019-02-09T08:41:01.329Z,19.24
2019-02-09T08:42:01.159Z,19.24
2019-02-09T08:43:00.649Z,19.24
2019-02-09T08:44:00.559Z,19.24
2019-02-09T08:45:01.260Z,19.25
2019-02-09T08:45:59.327Z,19.26
2019-02-09T08:46:59.047Z,19.26
2019-02-09T08:47:59.364Z,19.25
2019-02-09T08:49:07.190Z,19.26
2019-02-09T08:49:59.157Z,19.27
2019-02-09T08:50:58.892Z,19.27
2019-02-09T08:51:59.380Z,19.26
2019-02-09T08:52:58.802Z,19.27
2019-02-09T08:53:58.997Z,19.27
2019-02-09T08:54:58.809Z,19.28
2019-02-09T08:55:59.116Z,19.27
2019-02-09T08:56:58.718Z,19.29
2019-02-09T08:57:59.148Z,19.29
2019-02-09T08:58:59.007Z,19.28
2019-02-09T08:59:58.757Z,19.28
2019-02-09T09:00:59.044Z,19.28
2019-02-09T09:01:59.145Z,19.29
2019-02-09T09:02:58.773Z,19.29
2019-02-09T09:03:59.387Z,19.29
2019-02-09T09:04:59.002Z,19.3
2019-02-09T09:05:58.909Z,19.29
2019-02-09T09:06:59.067Z,19.31
2019-02-09T09:07:58.654Z,19.31
2019-02-09T09:09:00.674Z,19.31
2019-02-09T09:09:58.897Z,19.32
2019-02-09T09:10:58.935Z,19.32
2019-02-09T09:11:59.292Z,19.32
2019-02-09T09:12:58.958Z,19.32
2019-02-09T09:14:00.732Z,19.32
2019-02-09T09:14:59.618Z,19.32
2019-02-09T09:15:58.670Z,19.31
2019-02-09T09:16:58.783Z,19.32
2019-02-09T09:17:59.263Z,19.33
2019-02-09T09:18:59.060Z,19.33
2019-02-09T09:19:58.801Z,19.33
2019-02-09T09:20:59.323Z,19.33
2019-02-09T09:21:59.085Z,19.33
2019-02-09T09:22:59.301Z,19.34
2019-02-09T09:23:58.948Z,19.34
2019-02-09T09:24:59.703Z,19.34
2019-02-09T09:25:59.137Z,19.36
2019-02-09T09:27:00.251Z,19.36
2019-02-09T09:27:59.264Z,19.37
2019-02-09T09:28:59.129Z,19.37
2019-02-09T09:29:59.052Z,19.37
2019-02-09T09:30:59.115Z,19.38
2019-02-09T09:31:59.312Z,19.37
2019-02-09T09:32:59.196Z,19.37
2019-02-09T09:33:59.153Z,19.37
2019-02-09T09:35:00.258Z,19.37
2019-02-09T09:36:05.312Z,19.38
2019-02-09T09:36:59.029Z,19.39
2019-02-09T09:37:59.723Z,19.38
2019-02-09T09:38:58.821Z,19.39
2019-02-09T09:39:58.754Z,19.38
2019-02-09T09:40:59.372Z,19.39
2019-02-09T09:41:58.942Z,19.38
2019-02-09T09:42:58.956Z,19.39
2019-02-09T09:43:59.353Z,19.4
2019-02-09T09:44:59.263Z,19.41
2019-02-09T09:45:59.389Z,19.4
2019-02-09T09:47:00.674Z,19.39
2019-02-09T09:47:59.183Z,19.42
2019-02-09T09:49:00.814Z,19.41
2019-02-09T09:49:59.501Z,19.4
2019-02-09T09:51:00.125Z,19.41
2019-02-09T09:51:59.008Z,19.42
2019-02-09T09:52:58.662Z,19.43
2019-02-09T09:54:00.264Z,19.44
2019-02-09T09:54:58.792Z,19.46
2019-02-09T09:55:58.838Z,19.46
2019-02-09T09:57:00.587Z,19.46
2019-02-09T09:57:58.791Z,19.46
2019-02-09T09:59:00.693Z,19.48
2019-02-09T09:59:58.918Z,19.48
2019-02-09T10:00:59.292Z,19.5
2019-02-09T10:01:59.184Z,19.51
2019-02-09T10:02:59.195Z,19.52
2019-02-09T10:03:59.186Z,19.53
2019-02-09T10:04:59.205Z,19.55
2019-02-09T10:05:58.794Z,19.55
2019-02-09T10:06:58.823Z,19.57
2019-02-09T10:07:59.625Z,19.58
2019-02-09T10:08:59.103Z,19.58
2019-02-09T10:09:59.243Z,19.6
2019-02-09T10:11:00.788Z,19.59
2019-02-09T10:12:00.628Z,19.6
2019-02-09T10:12:58.893Z,19.61
2019-02-09T10:13:59.785Z,19.61
2019-02-09T10:14:58.666Z,19.62
2019-02-09T10:15:59.009Z,19.68
2019-02-09T10:16:59.691Z,19.69
2019-02-09T10:17:58.971Z,19.7
2019-02-09T10:18:58.837Z,19.74
2019-02-09T10:19:59.131Z,19.77
2019-02-09T10:20:58.968Z,19.81
2019-02-09T10:22:00.673Z,19.83
2019-02-09T10:22:58.807Z,19.83
2019-02-09T10:23:58.918Z,19.85
2019-02-09T10:24:59.067Z,19.9
2019-02-09T10:25:59.069Z,19.9
2019-02-09T10:26:59.360Z,19.92
2019-02-09T10:27:58.647Z,19.95
2019-02-09T10:28:59.454Z,19.94
2019-02-09T10:29:59.083Z,19.95
2019-02-09T10:30:59.180Z,19.95
2019-02-09T10:31:58.789Z,19.97
2019-02-09T10:33:00.553Z,20
2019-02-09T10:33:59.147Z,20.02
2019-02-09T10:34:58.956Z,20.05
2019-02-09T10:35:58.790Z,20.05
2019-02-09T10:36:58.883Z,20.06
2019-02-09T10:37:58.866Z,20.05
2019-02-09T10:38:58.833Z,20.07
2019-02-09T10:39:59.140Z,20.08
2019-02-09T10:40:58.978Z,20.08
2019-02-09T10:41:58.827Z,20.09
2019-02-09T10:42:58.996Z,20.08
2019-02-09T10:43:59.179Z,20.1
2019-02-09T10:44:59.331Z,20.1
2019-02-09T10:45:59.184Z,20.11
2019-02-09T10:46:58.879Z,20.1
2019-02-09T10:47:59.369Z,20.11
2019-02-09T10:48:59.202Z,20.12
2019-02-09T10:49:58.896Z,20.13
2019-02-09T10:50:58.786Z,20.14
2019-02-09T10:51:59.233Z,20.14
2019-02-09T10:52:59.629Z,20.14
2019-02-09T10:53:58.710Z,20.15
2019-02-09T10:54:59.349Z,20.16
2019-02-09T10:55:59.052Z,20.16
2019-02-09T10:56:59.170Z,20.15
2019-02-09T10:58:00.834Z,20.17
2019-02-09T10:58:59.518Z,20.19
2019-02-09T10:59:58.872Z,20.2
2019-02-09T11:00:59.433Z,20.2
2019-02-09T11:02:00.667Z,20.25
2019-02-09T11:02:58.882Z,20.24
2019-02-09T11:03:59.327Z,20.26
2019-02-09T11:04:58.751Z,20.27
2019-02-09T11:05:58.786Z,20.28
2019-02-09T11:06:59.785Z,20.28
2019-02-09T11:07:58.918Z,20.28
2019-02-09T11:08:58.722Z,20.29
2019-02-09T11:09:58.762Z,20.29
2019-02-09T11:10:58.998Z,20.32
2019-02-09T11:11:58.958Z,20.32
2019-02-09T11:12:59.290Z,20.32
2019-02-09T11:13:58.836Z,20.34
2019-02-09T11:14:59.627Z,20.38
2019-02-09T11:15:59.210Z,20.38
2019-02-09T11:16:59.002Z,20.38
2019-02-09T11:18:05.937Z,20.41
2019-02-09T11:18:59.020Z,20.42
2019-02-09T11:19:58.938Z,20.46
2019-02-09T11:20:58.741Z,20.47
2019-02-09T11:22:00.727Z,20.47
2019-02-09T11:22:59.338Z,20.47
2019-02-09T11:23:59.683Z,20.46
2019-02-09T11:24:58.624Z,20.49
2019-02-09T11:25:59.229Z,20.51
2019-02-09T11:27:00.675Z,20.52
2019-02-09T11:27:58.876Z,20.51
2019-02-09T11:28:58.720Z,20.54
2019-02-09T11:30:00.398Z,20.54
2019-02-09T11:31:00.977Z,20.54
2019-02-09T11:31:59.313Z,20.53
2019-02-09T11:33:01.828Z,20.53
2019-02-09T11:33:58.972Z,20.52
2019-02-09T11:34:58.857Z,20.54
2019-02-09T11:35:59.991Z,20.55
2019-02-09T11:36:58.714Z,20.56
2019-02-09T11:37:59.350Z,20.55
2019-02-09T11:38:58.725Z,20.56
2019-02-09T11:39:58.794Z,20.52
2019-02-09T11:40:59.482Z,20.5
2019-02-09T11:41:58.992Z,20.52
2019-02-09T11:42:59.405Z,20.51
2019-02-09T11:43:58.708Z,20.49
2019-02-09T11:45:00.666Z,20.48
2019-02-09T11:45:58.877Z,20.48
2019-02-09T11:46:59.727Z,20.47
2019-02-09T11:47:58.686Z,20.46
2019-02-09T11:48:59.083Z,20.44
2019-02-09T11:49:59.146Z,20.43
2019-02-09T11:50:59.761Z,20.42
2019-02-09T11:51:59.344Z,20.41
2019-02-09T11:52:58.789Z,20.39
2019-02-09T11:53:58.798Z,20.39
2019-02-09T11:54:59.068Z,20.39
2019-02-09T11:55:59.079Z,20.37
2019-02-09T11:56:59.419Z,20.36
2019-02-09T11:57:59.097Z,20.35
2019-02-09T11:58:58.768Z,20.37
2019-02-09T11:59:59.423Z,20.36
2019-02-09T12:00:58.744Z,20.34
2019-02-09T12:01:59.525Z,20.34
2019-02-09T12:03:03.046Z,20.34
2019-02-09T12:03:58.861Z,20.33
2019-02-09T12:04:58.866Z,20.34
2019-02-09T12:05:58.898Z,20.34
2019-02-09T12:06:59.117Z,20.33
2019-02-09T12:07:58.891Z,20.34
2019-02-09T12:08:58.667Z,20.33
2019-02-09T12:09:59.562Z,20.33
2019-02-09T12:10:59.086Z,20.33
2019-02-09T12:11:58.714Z,20.33
2019-02-09T12:12:59.096Z,20.33
2019-02-09T12:13:59.003Z,20.32
2019-02-09T12:14:58.993Z,20.33
2019-02-09T12:15:58.965Z,20.32
2019-02-09T12:16:58.801Z,20.32
2019-02-09T12:17:58.959Z,20.33
2019-02-09T12:18:58.752Z,20.34
2019-02-09T12:19:58.938Z,20.33
2019-02-09T12:20:58.750Z,20.33
2019-02-09T12:21:58.971Z,20.35
2019-02-09T12:22:58.894Z,20.34
2019-02-09T12:23:58.883Z,20.34
2019-02-09T12:24:58.770Z,20.35
2019-02-09T12:25:58.633Z,20.34
2019-02-09T12:26:58.615Z,20.34
2019-02-09T12:27:59.016Z,20.34
2019-02-09T12:28:59.113Z,20.34
2019-02-09T12:29:59.052Z,20.35
2019-02-09T12:30:58.921Z,20.34
2019-02-09T12:31:59.433Z,20.34
2019-02-09T12:32:58.750Z,20.34
2019-02-09T12:34:00.539Z,20.35
2019-02-09T12:34:58.951Z,20.34
2019-02-09T12:35:59.072Z,20.36
2019-02-09T12:36:59.169Z,20.35
2019-02-09T12:37:59.270Z,20.35
2019-02-09T12:38:58.689Z,20.35
2019-02-09T12:39:59.291Z,20.34
2019-02-09T12:40:58.872Z,20.34
2019-02-09T12:41:59.442Z,20.34
2019-02-09T12:43:00.720Z,20.34
2019-02-09T12:43:58.690Z,20.33
2019-02-09T12:45:00.192Z,20.33
2019-02-09T12:45:58.852Z,20.33
2019-02-09T12:46:58.657Z,20.34
2019-02-09T12:47:59.863Z,20.33
2019-02-09T12:48:59.055Z,20.32
2019-02-09T12:50:00.573Z,20.33
2019-02-09T12:50:58.827Z,20.32
2019-02-09T12:51:58.963Z,20.32
2019-02-09T12:52:58.763Z,20.31
2019-02-09T12:53:58.701Z,20.31
2019-02-09T12:54:59.193Z,20.3
2019-02-09T12:55:59.107Z,20.29